createdAt,value
2022-10-07T00:00:13.669Z,12.86
2022-10-07T00:01:13.763Z,12.70
2022-10-07T00:02:13.718Z,12.78
2022-10-07T00:03:13.683Z,12.65
2022-10-07T00:04:13.689Z,12.72
2022-10-07T00:05:13.695Z,12.73
2022-10-07T00:06:13.700Z,12.64
2022-10-07T00:07:13.711Z,12.73
2022-10-07T00:08:13.721Z,12.64
2022-10-07T00:09:13.727Z,12.62
2022-10-07T00:10:13.727Z,12.75
2022-10-07T00:11:13.732Z,12.72
2022-10-07T00:12:13.768Z,12.72
2022-10-07T00:13:13.753Z,12.75
2022-10-07T00:14:13.759Z,12.62
2022-10-07T00:15:13.759Z,12.58
2022-10-07T00:16:13.870Z,12.65
2022-10-07T00:17:13.778Z,12.60
2022-10-07T00:18:13.786Z,12.68
2022-10-07T00:19:13.784Z,12.61
2022-10-07T00:20:13.798Z,12.60
2022-10-07T00:21:13.803Z,12.61
2022-10-07T00:22:13.808Z,12.60
2022-10-07T00:23:13.807Z,12.76
2022-10-07T00:24:13.814Z,12.72
2022-10-07T00:25:13.821Z,12.73
2022-10-07T00:26:13.834Z,12.70
2022-10-07T00:27:13.834Z,12.73
2022-10-07T00:28:13.922Z,12.70
2022-10-07T00:29:13.844Z,12.72
2022-10-07T00:30:13.859Z,12.76
2022-10-07T00:31:13.891Z,12.73
2022-10-07T00:32:13.871Z,12.76
2022-10-07T00:33:13.871Z,12.73
2022-10-07T00:34:13.883Z,12.68
2022-10-07T00:35:13.888Z,12.57
2022-10-07T00:36:14.715Z,12.64
2022-10-07T00:37:13.893Z,12.68
2022-10-07T00:38:13.904Z,12.61
2022-10-07T00:39:13.912Z,12.50
2022-10-07T00:40:13.927Z,12.55
2022-10-07T00:41:13.914Z,12.54
2022-10-07T00:42:13.930Z,12.45
2022-10-07T00:43:13.927Z,12.46
2022-10-07T00:44:13.957Z,12.47
2022-10-07T00:45:13.944Z,12.50
2022-10-07T00:46:14.010Z,12.53
2022-10-07T00:47:13.955Z,12.45
2022-10-07T00:48:13.959Z,12.43
2022-10-07T00:49:13.973Z,12.42
2022-10-07T00:50:13.978Z,12.43
2022-10-07T00:51:13.987Z,12.40
2022-10-07T00:52:13.990Z,12.46
2022-10-07T00:53:13.991Z,12.42
2022-10-07T00:54:14.002Z,12.39
2022-10-07T00:55:14.003Z,12.46
2022-10-07T00:56:14.007Z,12.36
2022-10-07T00:57:14.016Z,12.35
2022-10-07T00:58:14.020Z,12.35
2022-10-07T00:59:14.028Z,12.28
2022-10-07T01:00:14.062Z,12.24
2022-10-07T01:01:14.122Z,12.22
2022-10-07T01:02:14.106Z,12.15
2022-10-07T01:03:14.051Z,12.29
2022-10-07T01:04:14.056Z,12.20
2022-10-07T01:05:14.061Z,12.04
2022-10-07T01:06:14.075Z,12.13
2022-10-07T01:07:14.082Z,12.12
2022-10-07T01:08:14.086Z,11.99
2022-10-07T01:09:14.083Z,11.99
2022-10-07T01:10:14.091Z,12.02
2022-10-07T01:11:14.300Z,12.00
2022-10-07T01:12:14.106Z,12.13
2022-10-07T01:13:14.115Z,12.12
2022-10-07T01:14:14.123Z,12.10
2022-10-07T01:15:14.119Z,12.25
2022-10-07T01:16:14.155Z,12.22
2022-10-07T01:17:14.138Z,12.24
2022-10-07T01:18:14.146Z,12.27
2022-10-07T01:19:14.143Z,12.24
2022-10-07T01:20:14.151Z,12.21
2022-10-07T01:21:14.165Z,12.24
2022-10-07T01:22:14.161Z,12.18
2022-10-07T01:23:14.177Z,12.18
2022-10-07T01:24:14.181Z,12.15
2022-10-07T01:25:14.189Z,12.15
2022-10-07T01:26:14.193Z,12.02
2022-10-07T01:27:14.193Z,11.97
2022-10-07T01:28:14.305Z,11.94
2022-10-07T01:29:14.211Z,11.94
2022-10-07T01:30:14.210Z,12.04
2022-10-07T01:31:14.258Z,12.00
2022-10-07T01:32:14.250Z,11.99
2022-10-07T01:33:14.229Z,11.95
2022-10-07T01:34:14.242Z,11.99
2022-10-07T01:35:14.248Z,11.95
2022-10-07T01:36:14.244Z,12.00
2022-10-07T01:37:14.252Z,12.03
2022-10-07T01:38:14.265Z,11.99
2022-10-07T01:39:14.261Z,12.02
2022-10-07T01:40:14.275Z,11.94
2022-10-07T01:41:14.281Z,12.07
2022-10-07T01:42:14.287Z,12.09
2022-10-07T01:43:14.287Z,12.20
2022-10-07T01:44:14.298Z,12.20
2022-10-07T01:45:14.306Z,12.20
2022-10-07T01:46:14.403Z,12.21
2022-10-07T01:47:14.309Z,12.24
2022-10-07T01:48:14.348Z,12.20
2022-10-07T01:49:14.320Z,12.20
2022-10-07T01:50:14.337Z,12.13
2022-10-07T01:51:14.332Z,12.20
2022-10-07T01:52:14.345Z,12.24
2022-10-07T01:53:14.344Z,12.20
2022-10-07T01:54:14.363Z,12.10
2022-10-07T01:55:14.355Z,12.12
2022-10-07T01:56:14.361Z,11.97
2022-10-07T01:57:14.376Z,12.03
2022-10-07T01:58:14.380Z,12.10
2022-10-07T01:59:14.387Z,12.07
2022-10-07T02:00:14.393Z,11.99
2022-10-07T02:01:14.437Z,12.02
2022-10-07T02:02:14.403Z,11.97
2022-10-07T02:03:14.459Z,11.95
2022-10-07T02:04:14.428Z,11.94
2022-10-07T02:05:14.415Z,11.95
2022-10-07T02:06:14.427Z,11.83
2022-10-07T02:07:14.428Z,11.83
2022-10-07T02:08:14.431Z,11.90
2022-10-07T02:09:14.445Z,11.83
2022-10-07T02:10:14.449Z,11.87
2022-10-07T02:11:14.458Z,11.84
2022-10-07T02:12:14.461Z,11.80
2022-10-07T02:13:14.460Z,11.86
2022-10-07T02:14:14.479Z,11.81
2022-10-07T02:15:14.479Z,11.77
2022-10-07T02:16:14.572Z,11.88
2022-10-07T02:17:14.489Z,11.90
2022-10-07T02:18:14.489Z,11.90
2022-10-07T02:19:14.493Z,11.91
2022-10-07T02:20:14.532Z,11.88
2022-10-07T02:21:14.512Z,11.94
2022-10-07T02:22:14.520Z,11.87
2022-10-07T02:23:14.524Z,11.78
2022-10-07T02:24:14.523Z,11.73
2022-10-07T02:25:14.528Z,11.87
2022-10-07T02:26:14.542Z,11.81
2022-10-07T02:27:14.548Z,11.78
2022-10-07T02:28:14.610Z,11.73
2022-10-07T02:29:14.550Z,11.80
2022-10-07T02:30:14.564Z,11.75
2022-10-07T02:31:14.635Z,11.75
2022-10-07T02:32:14.568Z,11.75
2022-10-07T02:33:14.576Z,11.73
2022-10-07T02:34:19.542Z,11.75
2022-10-07T02:35:14.592Z,11.65
2022-10-07T02:36:14.619Z,11.65
2022-10-07T02:37:14.597Z,11.57
2022-10-07T02:38:14.609Z,11.52
2022-10-07T02:39:14.615Z,11.37
2022-10-07T02:40:14.621Z,11.26
2022-10-07T02:41:14.618Z,11.04
2022-10-07T02:42:14.632Z,11.10
2022-10-07T02:43:14.630Z,11.04
2022-10-07T02:44:14.643Z,11.04
2022-10-07T02:45:14.649Z,11.08
2022-10-07T02:46:14.695Z,11.08
2022-10-07T02:47:14.651Z,11.10
2022-10-07T02:48:14.664Z,11.02
2022-10-07T02:49:14.664Z,11.02
2022-10-07T02:50:14.679Z,10.93
2022-10-07T02:51:20.003Z,10.93
2022-10-07T02:52:14.707Z,10.94
2022-10-07T02:53:14.693Z,10.90
2022-10-07T02:54:14.696Z,10.97
2022-10-07T02:55:14.704Z,10.99
2022-10-07T02:56:14.700Z,11.02
2022-10-07T02:57:14.716Z,10.92
2022-10-07T02:58:14.718Z,10.99
2022-10-07T02:59:14.717Z,10.90
2022-10-07T03:00:14.724Z,10.97
2022-10-07T03:01:14.819Z,10.92
2022-10-07T03:02:14.732Z,10.97
2022-10-07T03:03:14.831Z,10.99
2022-10-07T03:04:14.742Z,11.02
2022-10-07T03:05:14.747Z,11.07
2022-10-07T03:06:14.761Z,11.05
2022-10-07T03:07:14.766Z,10.99
2022-10-07T03:08:14.794Z,11.00
2022-10-07T03:09:14.776Z,10.97
2022-10-07T03:10:14.779Z,10.94
2022-10-07T03:11:14.788Z,10.96
2022-10-07T03:12:14.792Z,10.94
2022-10-07T03:13:14.789Z,10.87
2022-10-07T03:14:14.796Z,10.87
2022-10-07T03:15:14.802Z,10.82
2022-10-07T03:16:14.828Z,10.86
2022-10-07T03:17:14.818Z,10.87
2022-10-07T03:18:14.824Z,10.84
2022-10-07T03:19:14.821Z,10.86
2022-10-07T03:20:14.830Z,10.93
2022-10-07T03:21:14.839Z,10.89
2022-10-07T03:22:14.844Z,10.97
2022-10-07T03:23:14.852Z,10.97
2022-10-07T03:24:14.868Z,10.96
2022-10-07T03:25:14.861Z,11.00
2022-10-07T03:26:14.856Z,10.99
2022-10-07T03:27:14.872Z,11.02
2022-10-07T03:28:14.930Z,11.05
2022-10-07T03:29:14.882Z,10.97
2022-10-07T03:30:14.878Z,10.96
2022-10-07T03:31:14.918Z,10.97
2022-10-07T03:32:14.888Z,11.00
2022-10-07T03:33:14.902Z,10.96
2022-10-07T03:34:14.899Z,10.87
2022-10-07T03:35:14.907Z,10.97
2022-10-07T03:36:14.917Z,10.97
2022-10-07T03:37:14.915Z,10.90
2022-10-07T03:38:14.926Z,10.84
2022-10-07T03:39:14.935Z,10.79
2022-10-07T03:40:14.949Z,10.81
2022-10-07T03:41:14.942Z,10.79
2022-10-07T03:42:14.947Z,10.75
2022-10-07T03:43:14.947Z,10.82
2022-10-07T03:44:14.956Z,10.81
2022-10-07T03:45:14.965Z,10.89
2022-10-07T03:46:15.033Z,10.78
2022-10-07T03:47:14.967Z,10.81
2022-10-07T03:48:14.977Z,10.82
2022-10-07T03:49:14.985Z,10.86
2022-10-07T03:50:14.991Z,10.89
2022-10-07T03:51:14.988Z,10.87
2022-10-07T03:52:14.999Z,10.90
2022-10-07T03:53:14.999Z,10.78
2022-10-07T03:54:15.004Z,10.71
2022-10-07T03:55:15.020Z,10.79
2022-10-07T03:56:15.043Z,10.71
2022-10-07T03:57:15.017Z,10.75
2022-10-07T03:58:15.023Z,10.75
2022-10-07T03:59:15.039Z,10.75
2022-10-07T04:00:15.040Z,10.76
2022-10-07T04:01:15.099Z,10.78
2022-10-07T04:02:15.045Z,10.81
2022-10-07T04:03:15.155Z,10.78
2022-10-07T04:04:15.060Z,10.76
2022-10-07T04:05:15.058Z,10.74
2022-10-07T04:06:15.072Z,10.78
2022-10-07T04:07:15.068Z,10.81
2022-10-07T04:08:15.081Z,10.78
2022-10-07T04:09:15.084Z,10.78
2022-10-07T04:10:15.085Z,10.71
2022-10-07T04:11:15.095Z,10.81
2022-10-07T04:12:15.121Z,10.74
2022-10-07T04:13:15.097Z,10.67
2022-10-07T04:14:15.109Z,10.61
2022-10-07T04:15:15.110Z,10.57
2022-10-07T04:16:15.198Z,10.46
2022-10-07T04:17:15.125Z,10.44
2022-10-07T04:18:15.129Z,10.46
2022-10-07T04:19:15.137Z,10.51
2022-10-07T04:20:15.131Z,10.49
2022-10-07T04:21:15.138Z,10.54
2022-10-07T04:22:15.149Z,10.51
2022-10-07T04:23:15.155Z,10.64
2022-10-07T04:24:15.159Z,10.60
2022-10-07T04:25:15.157Z,10.59
2022-10-07T04:26:15.161Z,10.67
2022-10-07T04:27:33.878Z,10.69
2022-10-07T04:28:15.313Z,10.68
2022-10-07T04:29:15.186Z,10.76
2022-10-07T04:30:15.188Z,10.67
2022-10-07T04:31:15.230Z,10.79
2022-10-07T04:32:15.210Z,10.79
2022-10-07T04:33:15.203Z,10.74
2022-10-07T04:34:15.204Z,10.72
2022-10-07T04:35:15.213Z,10.79
2022-10-07T04:36:15.221Z,10.81
2022-10-07T04:37:15.222Z,10.78
2022-10-07T04:38:15.229Z,10.74
2022-10-07T04:39:15.228Z,10.63
2022-10-07T04:40:15.231Z,10.59
2022-10-07T04:41:15.236Z,10.54
2022-10-07T04:42:15.248Z,10.49
2022-10-07T04:43:15.245Z,10.41
2022-10-07T04:44:15.301Z,10.51
2022-10-07T04:45:15.262Z,10.42
2022-10-07T04:46:15.353Z,10.37
2022-10-07T04:47:15.341Z,10.38
2022-10-07T04:48:15.277Z,10.26
2022-10-07T04:49:15.286Z,10.30
2022-10-07T04:50:15.281Z,10.34
2022-10-07T04:51:15.295Z,10.35
2022-10-07T04:52:15.296Z,10.37
2022-10-07T04:53:15.304Z,10.26
2022-10-07T04:54:15.301Z,10.34
2022-10-07T04:55:15.314Z,10.37
2022-10-07T04:56:15.309Z,10.30
2022-10-07T04:57:15.325Z,10.37
2022-10-07T04:58:15.325Z,10.33
2022-10-07T04:59:15.333Z,10.26
2022-10-07T05:00:15.363Z,10.25
2022-10-07T05:01:15.444Z,10.23
2022-10-07T05:02:15.444Z,10.28
2022-10-07T05:03:15.345Z,10.23
2022-10-07T05:04:15.347Z,10.26
2022-10-07T05:05:15.361Z,10.33
2022-10-07T05:06:15.365Z,10.31
2022-10-07T05:07:15.370Z,10.41
2022-10-07T05:08:15.368Z,10.38
2022-10-07T05:09:15.381Z,10.44
2022-10-07T05:10:15.378Z,10.44
2022-10-07T05:11:15.383Z,10.41
2022-10-07T05:12:15.395Z,10.42
2022-10-07T05:13:15.397Z,10.53
2022-10-07T05:14:15.397Z,10.44
2022-10-07T05:15:15.402Z,10.46
2022-10-07T05:16:15.492Z,10.48
2022-10-07T05:17:15.409Z,10.53
2022-10-07T05:18:15.417Z,10.40
2022-10-07T05:19:15.428Z,10.48
2022-10-07T05:20:15.434Z,10.41
2022-10-07T05:21:15.436Z,10.48
2022-10-07T05:22:15.435Z,10.46
2022-10-07T05:23:15.442Z,10.46
2022-10-07T05:24:15.444Z,10.44
2022-10-07T05:25:15.451Z,10.51
2022-10-07T05:26:15.460Z,10.56
2022-10-07T05:27:15.469Z,10.56
2022-10-07T05:28:15.526Z,10.59
2022-10-07T05:29:15.474Z,10.54
2022-10-07T05:30:15.471Z,10.59
2022-10-07T05:31:15.531Z,10.59
2022-10-07T05:32:15.537Z,10.59
2022-10-07T05:33:15.494Z,10.59
2022-10-07T05:34:15.490Z,10.67
2022-10-07T05:35:15.506Z,10.61
2022-10-07T05:36:15.499Z,10.64
2022-10-07T05:37:15.514Z,10.64
2022-10-07T05:38:15.510Z,10.69
2022-10-07T05:39:15.523Z,10.74
2022-10-07T05:40:15.519Z,10.75
2022-10-07T05:41:15.532Z,10.68
2022-10-07T05:42:15.528Z,10.67
2022-10-07T05:43:15.542Z,10.57
2022-10-07T05:44:15.539Z,10.59
2022-10-07T05:45:15.553Z,10.59
2022-10-07T05:46:15.612Z,10.61
2022-10-07T05:47:15.554Z,10.68
2022-10-07T05:48:15.647Z,10.67
2022-10-07T05:49:15.572Z,10.69
2022-10-07T05:50:15.573Z,10.64
2022-10-07T05:51:15.583Z,10.67
2022-10-07T05:52:15.583Z,10.60
2022-10-07T05:53:15.590Z,10.49
2022-10-07T05:54:15.593Z,10.49
2022-10-07T05:55:15.595Z,10.42
2022-10-07T05:56:15.594Z,10.46
2022-10-07T05:57:15.607Z,10.42
2022-10-07T05:58:15.617Z,10.38
2022-10-07T05:59:15.617Z,10.48
2022-10-07T06:00:15.617Z,10.44
2022-10-07T06:01:15.627Z,10.49
2022-10-07T06:02:15.834Z,10.67
2022-10-07T06:03:15.748Z,10.68
2022-10-07T06:04:15.652Z,10.69
2022-10-07T06:05:15.648Z,10.71
2022-10-07T06:06:15.644Z,10.61
2022-10-07T06:07:20.228Z,10.56
2022-10-07T06:08:15.651Z,10.57
2022-10-07T06:09:15.666Z,10.48
2022-10-07T06:10:15.669Z,10.41
2022-10-07T06:11:15.676Z,10.48
2022-10-07T06:12:15.677Z,10.48
2022-10-07T06:13:15.680Z,10.54
2022-10-07T06:14:15.688Z,10.49
2022-10-07T06:15:15.686Z,10.60
2022-10-07T06:16:15.747Z,10.64
2022-10-07T06:17:15.702Z,10.71
2022-10-07T06:18:15.709Z,10.75
2022-10-07T06:19:15.706Z,10.74
2022-10-07T06:20:15.731Z,10.82
2022-10-07T06:21:15.714Z,10.71
2022-10-07T06:22:15.728Z,10.67
2022-10-07T06:23:15.725Z,10.63
2022-10-07T06:24:15.729Z,10.59
2022-10-07T06:25:15.736Z,10.53
2022-10-07T06:26:15.749Z,10.53
2022-10-07T06:27:15.749Z,10.49
2022-10-07T06:28:15.856Z,10.51
2022-10-07T06:29:15.751Z,10.46
2022-10-07T06:30:15.758Z,10.46
2022-10-07T06:31:15.868Z,10.48
2022-10-07T06:32:15.767Z,10.44
2022-10-07T06:33:15.781Z,10.53
2022-10-07T06:34:15.785Z,10.59
2022-10-07T06:35:15.791Z,10.63
2022-10-07T06:36:15.822Z,10.72
2022-10-07T06:37:15.791Z,10.81
2022-10-07T06:38:15.817Z,10.84
2022-10-07T06:39:15.802Z,10.76
2022-10-07T06:40:15.846Z,10.86
2022-10-07T06:41:15.825Z,10.93
2022-10-07T06:42:15.814Z,10.92
2022-10-07T06:43:15.843Z,10.93
2022-10-07T06:44:15.834Z,11.00
2022-10-07T06:45:15.857Z,11.02
2022-10-07T06:46:15.942Z,11.04
2022-10-07T06:47:15.840Z,10.97
2022-10-07T06:48:15.923Z,11.00
2022-10-07T06:49:15.861Z,10.94
2022-10-07T06:50:15.876Z,10.97
2022-10-07T06:51:15.923Z,10.90
2022-10-07T06:52:15.910Z,10.99
2022-10-07T06:53:15.874Z,10.99
2022-10-07T06:54:15.876Z,11.04
2022-10-07T06:55:15.887Z,11.04
2022-10-07T06:56:15.902Z,11.04
2022-10-07T06:57:43.760Z,11.00
2022-10-07T06:58:15.920Z,11.00
2022-10-07T06:59:15.914Z,11.12
2022-10-07T07:00:15.911Z,11.14
2022-10-07T07:01:16.019Z,11.26
2022-10-07T07:02:15.996Z,11.19
2022-10-07T07:03:15.932Z,11.19
2022-10-07T07:04:15.936Z,11.27
2022-10-07T07:05:15.956Z,11.41
2022-10-07T07:06:15.932Z,11.35
2022-10-07T07:07:15.946Z,11.52
2022-10-07T07:08:15.960Z,11.60
2022-10-07T07:09:15.972Z,11.70
2022-10-07T07:10:15.998Z,11.83
2022-10-07T07:11:15.967Z,11.94
2022-10-07T07:12:15.979Z,12.12
2022-10-07T07:13:15.970Z,12.13
2022-10-07T07:14:15.979Z,12.29
2022-10-07T07:15:15.985Z,12.36
2022-10-07T07:16:16.072Z,12.53
2022-10-07T07:17:15.995Z,12.60
2022-10-07T07:18:15.998Z,12.83
2022-10-07T07:19:16.006Z,13.04
2022-10-07T07:20:16.010Z,13.33
2022-10-07T07:21:16.017Z,13.62
2022-10-07T07:22:16.019Z,14.07
2022-10-07T07:23:16.019Z,15.00
2022-10-07T07:24:16.046Z,16.15
2022-10-07T07:25:19.863Z,17.34
2022-10-07T07:26:18.665Z,18.41
2022-10-07T07:27:16.047Z,19.54
2022-10-07T07:32:17.010Z,23.41
2022-10-07T07:33:17.013Z,23.98
2022-10-07T07:44:55.565Z,27.37
2022-10-07T07:45:55.633Z,27.47
2022-10-07T07:46:55.570Z,27.54
2022-10-07T07:47:55.580Z,27.75
2022-10-07T07:48:55.590Z,27.83
2022-10-07T07:49:55.797Z,27.98
2022-10-07T07:50:58.635Z,28.15
2022-10-07T07:51:55.622Z,28.29
2022-10-07T07:52:57.349Z,28.29
2022-10-07T07:53:55.644Z,28.32
2022-10-07T16:13:20.239Z,20.39
2022-10-07T16:14:22.860Z,20.36
2022-10-07T16:15:20.249Z,20.31
2022-10-07T16:16:20.384Z,20.28
2022-10-07T16:17:20.261Z,20.28
2022-10-07T16:18:20.272Z,20.16
2022-10-07T16:19:20.293Z,20.18
2022-10-07T16:20:20.304Z,20.16
2022-10-07T16:21:20.316Z,20.09
2022-10-07T16:22:20.322Z,20.07
2022-10-07T16:23:20.339Z,19.99
2022-10-07T16:24:20.345Z,19.95
2022-10-07T16:25:20.355Z,20.00
2022-10-07T16:26:20.371Z,19.96
2022-10-07T16:27:20.380Z,19.88
2022-10-07T16:28:20.459Z,19.91
2022-10-07T16:29:20.431Z,19.79
2022-10-07T16:30:20.425Z,19.69
2022-10-07T16:31:20.460Z,19.71
2022-10-07T16:32:20.440Z,19.64
2022-10-07T16:33:20.454Z,19.64
2022-10-07T16:34:20.464Z,19.54
2022-10-07T16:35:20.475Z,19.56
2022-10-07T16:36:20.494Z,19.56
2022-10-07T16:37:20.507Z,19.56
2022-10-07T16:38:20.512Z,19.52
2022-10-07T16:39:20.529Z,19.44
2022-10-07T16:40:20.535Z,19.51
2022-10-07T16:41:23.782Z,19.47
2022-10-07T16:42:20.568Z,19.48
2022-10-07T16:44:50.772Z,19.37
2022-10-07T16:45:48.229Z,19.31
2022-10-07T16:46:48.340Z,19.30
2022-10-07T16:47:48.562Z,19.29
2022-10-07T16:48:48.256Z,19.18
2022-10-07T16:49:48.271Z,19.24
2022-10-07T16:50:48.285Z,19.19
2022-10-07T16:51:48.297Z,19.07
2022-10-07T16:52:48.311Z,19.11
2022-10-07T16:53:48.320Z,19.12
2022-10-07T16:54:48.334Z,19.00
2022-10-07T16:55:48.344Z,18.98
2022-10-07T16:56:48.446Z,18.99
2022-10-07T16:57:48.717Z,18.99
2022-10-07T16:58:48.379Z,18.98
2022-10-07T16:59:48.382Z,18.81
2022-10-07T17:00:48.429Z,18.95
2022-10-07T17:01:48.515Z,18.88
2022-10-07T17:02:48.417Z,18.84
2022-10-07T17:03:48.540Z,18.80
2022-10-07T17:04:48.446Z,18.75
2022-10-07T17:05:48.448Z,18.71
2022-10-07T17:06:48.465Z,18.73
2022-10-07T17:07:48.810Z,18.66
2022-10-07T17:08:48.612Z,18.63
2022-10-07T17:09:48.495Z,18.58
2022-10-07T17:10:48.511Z,18.56
2022-10-07T17:11:48.525Z,18.56
2022-10-07T17:12:48.534Z,18.47
2022-10-07T17:13:48.544Z,18.52
2022-10-07T17:14:48.549Z,18.41
2022-10-07T17:15:52.517Z,18.55
2022-10-07T17:16:48.594Z,18.44
2022-10-07T17:17:48.983Z,18.45
2022-10-07T17:18:48.600Z,18.40
2022-10-07T17:19:48.603Z,18.40
2022-10-07T17:20:48.620Z,18.35
2022-10-07T17:21:48.632Z,18.34
2022-10-07T17:22:48.643Z,18.38
2022-10-07T17:23:48.655Z,18.31
2022-10-07T17:37:34.616Z,18.01
2022-10-07T17:50:25.228Z,17.72
2022-10-07T17:51:25.239Z,17.78
2022-10-07T17:52:27.473Z,17.71
2022-10-07T17:53:25.280Z,17.83
2022-10-07T17:54:25.260Z,17.76
2022-10-07T17:55:25.282Z,17.82
2022-10-07T17:56:25.285Z,17.78
2022-10-07T17:57:25.293Z,17.80
2022-10-07T17:58:25.310Z,17.85
2022-10-07T17:59:25.318Z,17.71
2022-10-07T18:00:25.324Z,17.70
2022-10-07T18:01:25.358Z,17.67
2022-10-07T18:02:25.344Z,17.60
2022-10-07T18:03:25.361Z,17.59
2022-10-07T18:04:25.513Z,17.64
2022-10-07T18:05:25.371Z,17.52
2022-10-07T18:06:25.382Z,17.54
2022-10-07T18:07:25.402Z,17.42
2022-10-07T18:08:25.404Z,17.46
2022-10-07T18:09:25.464Z,17.42
2022-10-07T18:10:25.423Z,17.41
2022-10-07T18:11:25.434Z,17.46
2022-10-07T18:12:25.445Z,17.46
2022-10-07T18:13:25.452Z,17.44
2022-10-07T18:14:25.471Z,17.48
2022-10-07T18:15:25.482Z,17.46
2022-10-07T18:16:25.516Z,17.45
2022-10-07T18:17:25.499Z,17.39
2022-10-07T18:18:25.502Z,17.38
2022-10-07T18:19:25.521Z,17.38
2022-10-07T18:20:25.534Z,17.39
2022-10-07T18:21:25.541Z,17.41
2022-10-07T18:22:25.550Z,17.31
2022-10-07T18:23:25.575Z,17.31
2022-10-07T18:24:25.569Z,17.41
2022-10-07T18:25:25.592Z,17.36
2022-10-07T18:26:25.589Z,17.27
2022-10-07T18:27:25.600Z,17.26
2022-10-07T18:28:25.782Z,17.26
2022-10-07T18:29:25.611Z,17.22
2022-10-07T18:30:25.629Z,17.22
2022-10-07T18:31:25.696Z,17.16
2022-10-07T18:32:25.649Z,17.20
2022-10-07T18:33:25.651Z,17.20
2022-10-07T18:34:25.666Z,17.23
2022-10-07T18:35:25.681Z,17.22
2022-10-07T18:36:25.683Z,17.09
2022-10-07T18:37:25.693Z,17.04
2022-10-07T18:38:25.699Z,17.16
2022-10-07T18:39:25.717Z,17.12
2022-10-07T18:40:25.721Z,17.04
2022-10-07T18:41:25.828Z,17.04
2022-10-07T18:42:25.739Z,16.96
2022-10-07T18:43:25.753Z,17.02
2022-10-07T18:44:25.777Z,17.02
2022-10-07T18:49:34.947Z,17.06
2022-10-07T18:50:34.951Z,16.99
2022-10-07T18:58:36.848Z,16.78
2022-10-07T18:59:36.839Z,16.69
2022-10-07T19:00:38.120Z,16.65
2022-10-07T19:01:37.032Z,16.64
2022-10-07T19:04:29.441Z,16.66
2022-10-07T19:18:25.798Z,16.64
